Lamar, Texas
Current Conditions -  °F | °C
As of 11:53 PM on Wednesday 28 Jan 2015 (Local Time) from KRKP Reporting Station
Clear Clear  
Wind Chill: 61°   Ceiling: Unl
Heat Index: 61°   Visibility: 10mi
Dew Point: 59°   Wind: 5mph
Humidity: 93%   Direction: 170°S
Pressure: 30.16"   Gusts: NA
Location:  28.2335°N, 96.9422°W
Report Text: KRKP 290553Z AUTO 17004KT 10SM CLR 16/15 A3016 RMK AO2 SLP215 6//// T01610150 10183 20156 402330072 53006 PNO $
Loading
Personal Weather Stations






























Interactive Weather Map New forecast layout! Learn more

10-Day Weather Forecast

Advertisements
Track Severe Weather on mobile